createdAt,value
2018-09-17T00:00:16.401Z,75.32
2018-09-17T00:02:45.006Z,74.91
2018-09-17T00:05:13.767Z,74.71
2018-09-17T00:07:42.364Z,74.31
2018-09-17T00:10:11.037Z,74.03
2018-09-17T00:12:39.670Z,74.41
2018-09-17T00:15:08.465Z,74.01
2018-09-17T00:17:37.032Z,74.31
2018-09-17T00:20:05.664Z,74.31
2018-09-17T00:22:34.209Z,74.98
2018-09-17T00:25:02.775Z,75.00
2018-09-17T00:27:31.564Z,74.99
2018-09-17T00:30:00.137Z,74.17
2018-09-17T00:32:28.764Z,74.48
2018-09-17T00:34:57.358Z,75.04
2018-09-17T00:37:25.974Z,74.95
2018-09-17T00:39:54.592Z,75.28
2018-09-17T00:42:23.162Z,75.45
2018-09-17T00:44:51.714Z,75.24
2018-09-17T00:47:20.308Z,75.02
2018-09-17T00:49:48.879Z,75.27
2018-09-17T00:52:17.427Z,74.89
2018-09-17T00:54:46.007Z,74.15
2018-09-17T00:57:18.576Z,74.98
2018-09-17T00:59:47.170Z,74.31
2018-09-17T01:02:15.766Z,74.25
2018-09-17T01:04:44.364Z,74.59
2018-09-17T01:07:13.028Z,73.81
2018-09-17T01:09:43.579Z,73.61
2018-09-17T01:12:13.784Z,74.29
2018-09-17T01:14:42.474Z,74.12
2018-09-17T01:17:11.110Z,74.65
2018-09-17T01:19:39.833Z,74.07
2018-09-17T01:22:08.410Z,74.17
2018-09-17T01:24:37.006Z,74.14
2018-09-17T01:27:06.554Z,73.04
2018-09-17T01:29:35.128Z,73.50
2018-09-17T01:32:03.809Z,74.50
2018-09-17T01:34:32.367Z,74.42
2018-09-17T01:37:00.968Z,74.48
2018-09-17T01:39:29.603Z,75.00
2018-09-17T01:41:58.174Z,75.46
2018-09-17T01:44:26.793Z,75.00
2018-09-17T01:46:55.385Z,75.97
2018-09-17T01:49:23.995Z,75.99
2018-09-17T01:51:52.542Z,75.57
2018-09-17T01:54:21.248Z,76.36
2018-09-17T01:56:49.809Z,76.72
2018-09-17T01:59:18.428Z,76.84
2018-09-17T02:01:47.043Z,76.85
2018-09-17T02:04:15.631Z,76.29
2018-09-17T02:06:44.221Z,75.93
2018-09-17T02:09:12.914Z,75.99
2018-09-17T02:11:41.668Z,76.11
2018-09-17T02:14:10.306Z,75.79
2018-09-17T02:19:29.406Z,74.65
2018-09-17T02:21:57.971Z,74.67
2018-09-17T02:24:26.591Z,74.65
2018-09-17T02:26:55.159Z,74.64
2018-09-17T02:29:23.772Z,74.52
2018-09-17T02:31:52.526Z,74.24
2018-09-17T02:34:21.108Z,74.23
2018-09-17T02:36:49.692Z,75.40
2018-09-17T02:39:18.262Z,75.98
2018-09-17T02:41:47.047Z,76.01
2018-09-17T02:44:15.629Z,76.45
2018-09-17T02:46:44.296Z,76.36
2018-09-17T02:49:13.225Z,76.37
2018-09-17T02:51:41.798Z,76.13
2018-09-17T02:54:10.352Z,75.66
2018-09-17T02:56:38.995Z,75.20
2018-09-17T02:59:07.642Z,74.70
2018-09-17T03:01:36.249Z,74.74
2018-09-17T03:04:04.826Z,75.55
2018-09-17T03:06:33.453Z,75.77
2018-09-17T03:09:02.045Z,75.07
2018-09-17T03:11:30.671Z,75.48
2018-09-17T03:13:59.231Z,75.84
2018-09-17T03:16:27.816Z,75.87
2018-09-17T03:18:57.653Z,75.91
2018-09-17T03:21:26.276Z,75.23
2018-09-17T03:23:55.145Z,75.56
2018-09-17T03:26:23.977Z,75.60
2018-09-17T03:28:52.545Z,75.51
2018-09-17T03:31:21.102Z,74.96
2018-09-17T03:33:49.757Z,74.63
2018-09-17T03:36:18.294Z,74.54
2018-09-17T03:38:48.801Z,74.23
2018-09-17T03:41:18.499Z,74.36
2018-09-17T03:43:51.057Z,73.93
2018-09-17T03:46:19.742Z,74.51
2018-09-17T03:48:48.531Z,74.53
2018-09-17T03:51:17.527Z,74.59
2018-09-17T03:53:46.830Z,74.95
2018-09-17T03:56:15.429Z,75.05
2018-09-17T03:58:43.988Z,75.26
2018-09-17T04:01:12.560Z,75.67
2018-09-17T04:03:41.125Z,76.30
2018-09-17T04:06:09.707Z,76.74
2018-09-17T04:08:38.303Z,77.20
2018-09-17T04:11:06.885Z,77.15
2018-09-17T04:13:35.512Z,76.91
2018-09-17T04:16:04.078Z,77.22
2018-09-17T04:18:32.643Z,77.50
2018-09-17T04:21:01.188Z,76.97
2018-09-17T04:23:37.337Z,76.27
2018-09-17T04:26:07.175Z,75.58
2018-09-17T04:28:36.223Z,75.71
2018-09-17T04:31:05.070Z,75.29
2018-09-17T04:33:39.177Z,75.04
2018-09-17T04:36:08.178Z,74.88
2018-09-17T04:38:36.733Z,74.41
2018-09-17T04:41:05.373Z,74.59
2018-09-17T04:43:33.972Z,74.32
2018-09-17T04:46:02.559Z,74.96
2018-09-17T04:48:31.363Z,75.55
2018-09-17T04:50:59.997Z,76.43
2018-09-17T04:53:28.780Z,76.99
2018-09-17T04:55:57.344Z,76.83
2018-09-17T04:58:26.009Z,77.01
2018-09-17T05:00:54.572Z,76.67
2018-09-17T05:03:30.366Z,76.78
2018-09-17T05:05:58.916Z,77.99
2018-09-17T05:08:27.529Z,77.99
2018-09-17T05:10:56.055Z,77.76
2018-09-17T05:13:24.782Z,77.41
2018-09-17T05:15:53.231Z,77.18
2018-09-17T05:18:21.793Z,76.67
2018-09-17T05:20:50.344Z,76.84
2018-09-17T05:23:18.932Z,76.80
2018-09-17T05:25:47.583Z,76.96
2018-09-17T05:28:16.961Z,76.63
2018-09-17T05:30:45.551Z,76.05
2018-09-17T05:33:14.137Z,75.74
2018-09-17T05:35:42.704Z,75.62
2018-09-17T05:38:11.304Z,75.26
2018-09-17T05:40:43.525Z,74.70
2018-09-17T05:43:12.250Z,74.29
2018-09-17T05:45:40.803Z,75.43
2018-09-17T05:48:09.364Z,75.28
2018-09-17T05:50:38.009Z,75.04
2018-09-17T05:53:06.816Z,74.67
2018-09-17T05:55:35.339Z,74.10
2018-09-17T05:58:03.909Z,74.19
2018-09-17T06:00:32.548Z,74.40
2018-09-17T06:03:01.105Z,75.25
2018-09-17T06:05:29.838Z,74.77
2018-09-17T06:07:58.713Z,74.41
2018-09-17T06:10:27.263Z,74.08
2018-09-17T06:12:55.849Z,73.76
2018-09-17T06:15:25.573Z,73.49
2018-09-17T06:17:54.131Z,72.91
2018-09-17T06:20:22.908Z,73.96
2018-09-17T06:22:51.526Z,75.00
2018-09-17T06:25:20.099Z,74.78
2018-09-17T06:27:48.634Z,74.22
2018-09-17T06:30:17.292Z,74.76
2018-09-17T06:32:45.872Z,74.87
2018-09-17T06:35:14.555Z,74.39
2018-09-17T06:37:43.182Z,73.68
2018-09-17T06:40:11.754Z,73.06
2018-09-17T06:42:40.316Z,73.62
2018-09-17T06:45:08.933Z,75.18
2018-09-17T06:47:37.523Z,75.45
2018-09-17T06:50:06.113Z,75.76
2018-09-17T06:52:34.743Z,75.73
2018-09-17T06:55:04.488Z,75.33
2018-09-17T06:57:33.055Z,75.22
2018-09-17T07:00:01.697Z,74.92
2018-09-17T07:02:30.302Z,74.17
2018-09-17T07:04:58.836Z,74.22
2018-09-17T07:07:27.419Z,74.31
2018-09-17T07:09:55.992Z,73.76
2018-09-17T07:12:24.560Z,73.29
2018-09-17T07:14:53.123Z,73.32
2018-09-17T07:23:16.947Z,74.50
2018-09-17T07:25:45.537Z,73.30
2018-09-17T07:28:14.090Z,72.64
2018-09-17T07:30:42.659Z,72.25
2018-09-17T07:33:11.292Z,71.97
2018-09-17T07:35:39.872Z,71.60
2018-09-17T07:38:08.436Z,71.40
2018-09-17T07:40:37.223Z,70.90
2018-09-17T07:43:05.918Z,71.10
2018-09-17T07:45:34.463Z,70.46
2018-09-17T07:48:03.393Z,70.61
2018-09-17T07:50:31.953Z,70.41
2018-09-17T07:53:00.532Z,70.17
2018-09-17T07:55:29.070Z,70.54
2018-09-17T07:57:57.624Z,70.12
2018-09-17T08:00:27.060Z,69.33
2018-09-17T08:02:55.593Z,68.50
2018-09-17T08:05:24.159Z,69.48
2018-09-17T08:07:52.716Z,69.23
2018-09-17T08:10:23.895Z,68.39
2018-09-17T08:12:52.991Z,68.21
2018-09-17T08:15:22.383Z,67.89
2018-09-17T08:17:52.100Z,67.77
2018-09-17T08:20:20.708Z,68.03
2018-09-17T08:22:49.343Z,67.46
2018-09-17T08:25:17.981Z,67.47
2018-09-17T08:27:46.564Z,67.61
2018-09-17T08:30:15.129Z,66.73
2018-09-17T08:32:43.706Z,67.09
2018-09-17T08:35:12.436Z,66.28
2018-09-17T08:37:41.004Z,65.18
2018-09-17T08:40:09.576Z,65.41
2018-09-17T08:42:38.147Z,64.74
2018-09-17T08:45:06.787Z,63.25
2018-09-17T08:47:35.456Z,63.67
2018-09-17T08:50:04.096Z,62.72
2018-09-17T08:52:32.660Z,62.48
2018-09-17T08:55:06.453Z,61.31
2018-09-17T08:59:47.811Z,60.33
2018-09-17T09:02:17.407Z,60.22
2018-09-17T09:04:51.040Z,60.16
2018-09-17T09:07:24.660Z,59.85
2018-09-17T09:09:57.544Z,59.49
2018-09-17T09:12:28.217Z,59.49
2018-09-17T09:15:00.880Z,58.93
2018-09-17T09:17:29.496Z,56.71
2018-09-17T09:19:58.024Z,57.13
2018-09-17T09:22:26.616Z,57.00
2018-09-17T09:24:55.969Z,55.64
2018-09-17T09:27:24.572Z,54.70
2018-09-17T09:29:53.195Z,53.94
2018-09-17T09:32:21.829Z,53.22
2018-09-17T09:34:50.588Z,52.23
2018-09-17T09:37:19.236Z,52.97
2018-09-17T09:39:47.791Z,51.64
2018-09-17T09:42:16.378Z,49.75
2018-09-17T09:44:44.976Z,48.65
2018-09-17T09:47:13.851Z,47.15
2018-09-17T09:49:42.755Z,47.38
2018-09-17T09:52:11.327Z,46.93
2018-09-17T09:54:40.018Z,46.99
2018-09-17T09:57:08.609Z,45.15
2018-09-17T09:59:37.179Z,47.21
2018-09-17T10:02:10.990Z,46.42
2018-09-17T10:04:39.608Z,45.51
2018-09-17T10:07:08.153Z,45.33
2018-09-17T10:09:41.712Z,44.21
2018-09-17T10:12:15.568Z,43.74
2018-09-17T10:14:49.197Z,44.29
2018-09-17T10:17:22.896Z,42.22
2018-09-17T10:19:52.652Z,41.10
2018-09-17T10:22:21.534Z,40.44
2018-09-17T10:24:50.070Z,39.50
2018-09-17T10:27:19.093Z,39.78
2018-09-17T10:29:47.801Z,38.72
2018-09-17T10:32:16.801Z,38.82
2018-09-17T10:34:45.435Z,37.87
2018-09-17T10:37:14.258Z,37.69
2018-09-17T10:39:42.814Z,35.97
2018-09-17T10:42:11.530Z,36.02
2018-09-17T10:44:40.098Z,36.00
2018-09-17T10:47:08.638Z,36.54
2018-09-17T10:49:37.237Z,35.45
2018-09-17T10:52:05.889Z,35.17
2018-09-17T10:54:34.479Z,35.27
2018-09-17T10:57:03.196Z,35.49
2018-09-17T10:59:31.786Z,34.69
2018-09-17T11:02:00.345Z,34.53
2018-09-17T11:04:29.136Z,35.18
2018-09-17T11:06:57.704Z,35.57
2018-09-17T11:09:26.261Z,36.59
2018-09-17T11:11:54.998Z,36.73
2018-09-17T11:14:23.580Z,37.21
2018-09-17T11:16:52.116Z,38.49
2018-09-17T11:19:20.782Z,37.70
2018-09-17T11:21:49.576Z,38.67
2018-09-17T11:24:19.342Z,39.63
2018-09-17T11:26:48.172Z,39.09
2018-09-17T11:29:16.860Z,39.93
2018-09-17T11:31:45.440Z,39.57
2018-09-17T11:34:14.040Z,39.25
2018-09-17T11:36:42.793Z,40.37
2018-09-17T11:39:12.012Z,40.32
2018-09-17T11:41:41.081Z,39.78
2018-09-17T11:44:09.696Z,39.02
2018-09-17T11:46:38.364Z,39.02
2018-09-17T11:49:06.914Z,40.50
2018-09-17T11:51:35.521Z,40.72
2018-09-17T11:54:04.159Z,41.51
2018-09-17T11:56:32.681Z,40.61
2018-09-17T11:59:01.227Z,40.53
2018-09-17T12:01:34.961Z,39.44
2018-09-17T12:04:08.697Z,41.16
2018-09-17T12:06:42.570Z,39.70
2018-09-17T12:09:11.702Z,41.35
2018-09-17T12:11:40.620Z,41.16
2018-09-17T12:14:09.460Z,40.41
2018-09-17T12:16:38.000Z,40.81
2018-09-17T12:19:06.701Z,39.83
2018-09-17T12:21:35.354Z,39.64
2018-09-17T12:24:03.915Z,39.93
2018-09-17T12:26:32.527Z,39.11
2018-09-17T12:29:01.071Z,39.66
2018-09-17T12:31:29.608Z,39.00
2018-09-17T12:33:58.246Z,38.76
2018-09-17T12:36:26.907Z,39.14
2018-09-17T12:38:55.456Z,38.97
2018-09-17T12:41:24.007Z,39.33
2018-09-17T12:43:52.599Z,39.33
2018-09-17T12:46:21.127Z,38.96
2018-09-17T12:48:49.673Z,38.76
2018-09-17T12:51:18.330Z,39.25
2018-09-17T12:53:46.988Z,38.14
2018-09-17T12:56:15.659Z,38.17
2018-09-17T12:58:44.249Z,38.11
2018-09-17T13:01:12.816Z,37.48
2018-09-17T13:03:41.372Z,38.04
2018-09-17T13:06:10.005Z,39.27
2018-09-17T13:08:38.608Z,39.46
2018-09-17T13:11:07.738Z,39.17
2018-09-17T13:13:38.503Z,39.60
2018-09-17T13:16:08.757Z,40.00
2018-09-17T13:18:37.459Z,39.54
2018-09-17T13:21:06.329Z,38.98
2018-09-17T13:23:35.012Z,38.51
2018-09-17T13:26:04.626Z,38.33
2018-09-17T13:28:33.233Z,38.06
2018-09-17T13:31:01.862Z,38.17
2018-09-17T13:33:30.463Z,37.16
2018-09-17T13:35:59.408Z,37.53
2018-09-17T13:38:27.934Z,38.51
2018-09-17T13:40:56.524Z,38.63
2018-09-17T13:43:25.096Z,37.62
2018-09-17T13:45:53.677Z,37.29
2018-09-17T13:48:22.261Z,36.57
2018-09-17T13:50:50.829Z,36.99
2018-09-17T13:53:19.504Z,36.17
2018-09-17T13:55:48.025Z,37.11
2018-09-17T13:58:17.050Z,35.83
2018-09-17T14:00:45.639Z,36.34
2018-09-17T14:03:14.186Z,37.18
2018-09-17T14:05:42.792Z,35.93
2018-09-17T14:08:11.426Z,37.16
2018-09-17T14:10:40.039Z,36.51
2018-09-17T14:13:08.567Z,35.56
2018-09-17T14:15:37.191Z,35.13
2018-09-17T14:20:57.323Z,36.20
2018-09-17T14:23:27.686Z,35.93
2018-09-17T14:25:57.592Z,36.05
2018-09-17T14:28:26.656Z,34.69
2018-09-17T14:30:55.206Z,35.00
2018-09-17T14:33:29.325Z,34.45
2018-09-17T14:35:58.040Z,35.00
2018-09-17T14:38:26.634Z,34.17
2018-09-17T14:40:55.486Z,35.26
2018-09-17T14:43:24.076Z,34.94
2018-09-17T14:45:52.632Z,35.33
2018-09-17T14:48:21.164Z,35.38
2018-09-17T14:50:49.745Z,36.67
2018-09-17T14:53:18.460Z,36.65
2018-09-17T14:55:46.985Z,37.17
2018-09-17T14:58:15.653Z,37.33
2018-09-17T15:00:44.216Z,37.51
2018-09-17T15:03:12.864Z,37.84
2018-09-17T15:05:41.437Z,37.70
2018-09-17T15:08:10.216Z,38.13
2018-09-17T15:10:38.780Z,38.10
2018-09-17T15:13:07.423Z,39.89
2018-09-17T15:15:40.506Z,39.84
2018-09-17T15:18:09.043Z,39.95
2018-09-17T15:20:37.612Z,39.68
2018-09-17T15:23:06.222Z,39.36
2018-09-17T15:25:34.749Z,39.81
2018-09-17T15:28:03.437Z,39.30
2018-09-17T15:30:31.938Z,39.08
2018-09-17T15:33:00.445Z,38.38
2018-09-17T15:35:29.137Z,37.01
2018-09-17T15:37:57.747Z,36.36
2018-09-17T15:40:26.540Z,33.23
2018-09-17T15:42:55.084Z,31.65
2018-09-17T15:45:23.667Z,28.61
2018-09-17T15:47:52.220Z,26.63
2018-09-17T15:50:20.895Z,25.13
2018-09-17T15:52:49.500Z,24.15
2018-09-17T15:55:18.035Z,23.59
2018-09-17T15:57:46.699Z,24.06
2018-09-17T16:00:15.323Z,23.68
2018-09-17T16:02:44.738Z,23.75
2018-09-17T16:05:13.745Z,23.24
2018-09-17T16:07:42.280Z,24.42
2018-09-17T16:10:10.861Z,23.91
2018-09-17T16:12:39.426Z,24.93
2018-09-17T16:15:08.057Z,27.10
2018-09-17T16:20:52.146Z,32.21
2018-09-17T16:23:20.679Z,33.37
2018-09-17T16:25:49.296Z,35.08
2018-09-17T16:28:17.876Z,35.37
2018-09-17T16:30:46.699Z,37.47
2018-09-17T16:33:15.414Z,38.55
2018-09-17T16:35:43.970Z,40.69
2018-09-17T16:38:12.531Z,40.98
2018-09-17T16:40:41.130Z,42.64
2018-09-17T16:43:09.844Z,44.65
2018-09-17T16:45:38.667Z,47.17
2018-09-17T16:48:07.241Z,49.36
2018-09-17T16:50:36.374Z,49.82
2018-09-17T16:53:05.013Z,50.82
2018-09-17T16:55:33.507Z,51.39
2018-09-17T16:58:02.076Z,50.90
2018-09-17T17:00:30.673Z,52.04
2018-09-17T17:02:59.356Z,53.20
2018-09-17T17:05:27.935Z,53.75
2018-09-17T17:07:56.673Z,54.91
2018-09-17T17:10:25.249Z,54.50
2018-09-17T17:12:54.037Z,55.14
2018-09-17T17:15:22.653Z,54.96
2018-09-17T17:17:51.260Z,55.79
2018-09-17T17:20:19.909Z,56.43
2018-09-17T17:22:48.468Z,57.08
2018-09-17T17:25:17.066Z,57.08
2018-09-17T17:27:45.690Z,57.46
2018-09-17T17:30:14.656Z,58.53
2018-09-17T17:32:43.307Z,58.90
2018-09-17T17:35:12.067Z,59.26
2018-09-17T17:37:41.529Z,60.31
2018-09-17T17:40:10.327Z,60.46
2018-09-17T17:42:38.812Z,60.64
2018-09-17T17:45:07.685Z,61.29
2018-09-17T17:47:36.232Z,62.22
2018-09-17T17:50:05.153Z,62.94
2018-09-17T17:52:33.774Z,64.34
2018-09-17T17:55:02.603Z,64.50
2018-09-17T17:57:31.228Z,64.45
2018-09-17T17:59:59.795Z,65.05
2018-09-17T18:02:28.399Z,65.29
2018-09-17T18:04:56.947Z,65.45
2018-09-17T18:07:25.507Z,66.15
2018-09-17T18:09:54.092Z,65.88
2018-09-17T18:12:22.672Z,66.05
2018-09-17T18:14:51.339Z,65.19
2018-09-17T18:17:19.800Z,64.88
2018-09-17T18:19:48.400Z,64.65
2018-09-17T18:22:17.394Z,65.45
2018-09-17T18:24:45.976Z,65.18
2018-09-17T18:27:14.935Z,66.28
2018-09-17T18:29:43.545Z,65.64
2018-09-17T18:32:12.166Z,66.31
2018-09-17T18:34:40.792Z,65.79
2018-09-17T18:37:14.353Z,65.59
2018-09-17T18:39:43.047Z,66.68
2018-09-17T18:42:12.171Z,66.72
2018-09-17T18:44:40.789Z,66.75
2018-09-17T18:47:09.338Z,67.06
2018-09-17T18:49:37.882Z,67.65
2018-09-17T18:52:06.652Z,67.15
2018-09-17T18:54:35.363Z,68.10
2018-09-17T18:57:03.975Z,68.22
2018-09-17T18:59:32.508Z,67.55
2018-09-17T19:02:07.474Z,67.69
2018-09-17T19:04:36.057Z,68.26
2018-09-17T19:07:04.664Z,68.42
2018-09-17T19:09:38.244Z,68.54
2018-09-17T19:12:07.165Z,68.90
2018-09-17T19:14:40.756Z,68.90
2018-09-17T19:17:14.608Z,68.76
2018-09-17T19:19:43.222Z,69.17
2018-09-17T19:22:17.122Z,68.38
2018-09-17T19:24:45.989Z,69.31
2018-09-17T19:27:14.613Z,69.21
2018-09-17T19:29:43.203Z,69.57
2018-09-17T19:32:11.762Z,69.70
2018-09-17T19:34:40.312Z,70.19
2018-09-17T19:37:14.108Z,70.38
2018-09-17T19:39:48.017Z,70.16
2018-09-17T19:42:16.838Z,70.40
2018-09-17T19:44:50.720Z,70.37
2018-09-17T19:50:14.573Z,70.24
2018-09-17T19:52:43.050Z,70.49
2018-09-17T19:55:12.443Z,70.25
2018-09-17T19:57:46.910Z,69.44
2018-09-17T20:00:15.516Z,69.44
2018-09-17T20:02:44.861Z,69.55
2018-09-17T20:05:18.675Z,69.73
2018-09-17T20:07:47.263Z,69.81
2018-09-17T20:10:15.881Z,70.34
2018-09-17T20:12:44.388Z,70.35
2018-09-17T20:15:13.004Z,69.79
2018-09-17T20:17:41.610Z,70.01
2018-09-17T20:20:10.291Z,69.61
2018-09-17T20:22:38.970Z,69.71
2018-09-17T20:25:07.496Z,70.67
2018-09-17T20:27:36.036Z,70.95
2018-09-17T20:30:04.776Z,71.29
2018-09-17T20:32:33.313Z,71.52
2018-09-17T20:35:01.869Z,71.18
2018-09-17T20:37:30.635Z,70.89
2018-09-17T20:39:59.408Z,70.97
2018-09-17T20:42:27.976Z,71.35
2018-09-17T20:44:56.790Z,70.97
2018-09-17T20:47:25.437Z,70.95
2018-09-17T20:49:54.031Z,71.47
2018-09-17T20:52:22.600Z,71.57
2018-09-17T20:54:51.289Z,70.93
2018-09-17T20:57:19.877Z,71.59
2018-09-17T20:59:48.516Z,70.76
2018-09-17T21:02:17.079Z,70.94
2018-09-17T21:04:45.649Z,71.83
2018-09-17T21:07:14.311Z,71.02
2018-09-17T21:09:42.964Z,71.04
2018-09-17T21:12:11.578Z,71.55
2018-09-17T21:14:40.081Z,71.42
2018-09-17T21:17:08.874Z,71.71
2018-09-17T21:19:37.577Z,72.13
2018-09-17T21:22:06.317Z,71.22
2018-09-17T21:24:34.917Z,71.48
2018-09-17T21:27:03.555Z,71.84
2018-09-17T21:29:32.240Z,71.99
2018-09-17T21:32:01.690Z,72.16
2018-09-17T21:34:30.811Z,71.29
2018-09-17T21:36:59.614Z,71.88
2018-09-17T21:39:28.163Z,72.63
2018-09-17T21:41:56.725Z,73.15
2018-09-17T21:44:25.343Z,73.10
2018-09-17T21:46:53.927Z,72.79
2018-09-17T21:49:22.483Z,73.08
2018-09-17T21:51:51.102Z,72.24
2018-09-17T21:54:19.784Z,72.66
2018-09-17T21:56:48.317Z,72.67
2018-09-17T21:59:16.933Z,72.90
2018-09-17T22:01:45.599Z,72.85
2018-09-17T22:04:14.272Z,73.47
2018-09-17T22:06:42.761Z,73.49
2018-09-17T22:09:11.429Z,73.18
2018-09-17T22:11:40.027Z,72.72
2018-09-17T22:14:09.635Z,73.63
2018-09-17T22:16:38.152Z,72.65
